Terminal Aerodrome Forecast
Issued by NWS New Orleans/Baton Rouge, LA

Home | Current Version | Previous Version | Text Only | Print | Product List | Glossary On
Versions: 1 2 3 4 5 6 7 8 9 10 11 12 13 14 15 16
833
FTUS44 KLIX 300520
TAFBTR
TAF
KBTR 300520Z 3006/3106 00000KT P6SM FEW090 SCT250
     FM301600 04006KT P6SM FEW040 FEW250
     FM310200 00000KT P6SM SCT050 BKN250=

USA.gov is the U.S. government's official web portal to all federal, state and local government web resources and services.